Time;durP1;ratioP1;P1;durP2;ratioP2;P2;SDS_P1;SDS_P2;PMS_P1;PMS_P2;Temp;Humidity;BMP_temperature;BMP_pressure;BME280_temperature;BME280_humidity;BME280_pressure;Samples;Min_cycle;Max_cycle;Signal;HPM_P1;HPM_P2
2023/09/17 00:00:39;;;;;;;24.15;19.70;;;14.90;96.30;;;;;;5052434;28;20899;-76
2023/09/17 00:03:05;;;;;;;21.90;19.48;;;14.90;96.40;;;;;;5047720;28;20044;-76
2023/09/17 00:05:34;;;;;;;22.10;18.02;;;14.90;96.40;;;;;;5033976;28;20049;-76
2023/09/17 00:08:00;;;;;;;19.73;17.63;;;14.80;96.50;;;;;;5047288;28;20055;-77
2023/09/17 00:10:26;;;;;;;22.77;17.70;;;14.80;96.50;;;;;;5042490;28;20540;-76
2023/09/17 00:12:54;;;;;;;20.50;17.58;;;14.80;96.50;;;;;;5032851;28;20040;-76
2023/09/17 00:15:21;;;;;;;21.02;16.55;;;14.80;96.50;;;;;;5045787;28;20055;-76
2023/09/17 00:17:47;;;;;;;18.90;16.50;;;14.80;96.50;;;;;;5005472;28;20100;-77
2023/09/17 00:20:13;;;;;;;19.40;17.30;;;14.80;96.40;;;;;;5021853;28;20080;-76
2023/09/17 00:22:39;;;;;;;19.88;17.33;;;14.90;96.50;;;;;;5048591;28;20116;-76
2023/09/17 00:25:05;;;;;;;20.00;17.23;;;14.90;96.50;;;;;;5060314;28;20040;-77
2023/09/17 00:27:33;;;;;;;21.13;18.60;;;15.00;96.60;;;;;;5009308;28;20068;-76
2023/09/17 00:29:59;;;;;;;20.38;18.05;;;15.10;96.90;;;;;;5003493;28;20046;-76
2023/09/17 00:32:25;;;;;;;20.73;17.98;;;15.10;97.00;;;;;;5033896;28;20084;-76
2023/09/17 00:34:51;;;;;;;20.45;17.38;;;15.20;97.10;;;;;;5036665;28;20188;-76
2023/09/17 00:37:18;;;;;;;20.67;17.10;;;15.30;97.30;;;;;;5049399;28;20550;-76
2023/09/17 00:39:44;;;;;;;19.55;17.00;;;15.30;97.40;;;;;;5031895;28;20116;-76
2023/09/17 00:42:10;;;;;;;19.88;16.35;;;15.40;97.60;;;;;;5042091;28;20070;-76
2023/09/17 00:44:36;;;;;;;21.83;18.58;;;15.50;97.70;;;;;;5049527;28;20503;-76
2023/09/17 00:47:04;;;;;;;18.35;16.05;;;15.50;97.80;;;;;;5067692;28;20048;-76
2023/09/17 00:49:32;;;;;;;20.48;17.42;;;15.60;98.00;;;;;;5047336;28;20044;-76
2023/09/17 00:51:58;;;;;;;21.83;17.10;;;15.60;98.00;;;;;;5066158;28;20507;-76
2023/09/17 00:54:27;;;;;;;19.58;16.58;;;15.60;98.20;;;;;;5032668;28;20494;-76
2023/09/17 00:56:54;;;;;;;20.60;17.52;;;15.60;98.30;;;;;;5051084;28;20459;-76
2023/09/17 00:59:20;;;;;;;22.83;16.92;;;15.60;98.40;;;;;;5049941;28;20500;-76
2023/09/17 01:01:46;;;;;;;19.77;16.50;;;15.60;98.50;;;;;;5053748;28;20055;-77
2023/09/17 01:04:14;;;;;;;20.27;18.08;;;15.60;98.60;;;;;;5053200;28;20090;-76
2023/09/17 01:06:41;;;;;;;18.83;16.83;;;15.60;98.70;;;;;;5066672;28;20091;-77
2023/09/17 01:09:08;;;;;;;19.90;17.15;;;15.60;98.80;;;;;;5023990;28;20084;-76
2023/09/17 01:11:37;;;;;;;21.60;18.52;;;15.60;98.80;;;;;;5050703;28;20158;-76
2023/09/17 01:14:12;;;;;;;21.02;18.20;;;15.70;99.00;;;;;;5044656;28;20056;-76
2023/09/17 01:16:47;;;;;;;24.13;18.08;;;15.70;99.00;;;;;;5064964;28;20237;-76
2023/09/17 01:19:24;;;;;;;22.23;18.95;;;15.70;99.10;;;;;;5031755;28;20045;-77
2023/09/17 01:22:30;;;;;;;23.55;18.77;;;15.70;99.20;;;;;;5030322;28;20105;-77
2023/09/17 01:25:18;;;;;;;20.50;18.27;;;15.80;99.40;;;;;;5047902;28;20051;-77
2023/09/17 01:27:44;;;;;;;23.58;21.00;;;15.80;99.40;;;;;;5022775;28;20050;-76
2023/09/17 01:30:21;;;;;;;19.55;17.25;;;15.80;99.30;;;;;;5024341;28;20044;-76
2023/09/17 01:32:47;;;;;;;19.77;17.65;;;15.90;99.50;;;;;;5034467;28;20052;-77
2023/09/17 01:35:15;;;;;;;21.55;18.58;;;15.90;99.60;;;;;;5032690;28;20738;-76
2023/09/17 01:37:58;;;;;;;23.02;20.08;;;16.00;99.70;;;;;;5052267;28;20048;-77
2023/09/17 01:40:24;;;;;;;22.10;19.80;;;16.10;99.90;;;;;;5041556;28;20044;-76
2023/09/17 01:42:51;;;;;;;24.50;21.90;;;16.20;99.90;;;;;;5050194;28;20041;-76
2023/09/17 01:45:18;;;;;;;24.85;20.48;;;16.30;99.90;;;;;;5046328;28;20475;-76
2023/09/17 01:47:50;;;;;;;20.50;18.25;;;16.30;99.90;;;;;;5027832;28;20047;-76
2023/09/17 01:50:17;;;;;;;27.30;21.42;;;16.40;99.90;;;;;;5043384;28;20469;-76
2023/09/17 01:52:44;;;;;;;22.15;19.75;;;16.40;99.90;;;;;;5030886;28;20053;-77
2023/09/17 01:55:10;;;;;;;23.75;19.38;;;16.40;99.90;;;;;;5046822;28;20059;-76
2023/09/17 01:57:36;;;;;;;24.13;20.80;;;16.50;99.90;;;;;;5028918;28;20041;-77
2023/09/17 02:00:16;;;;;;;25.50;20.20;;;16.50;99.90;;;;;;5046135;28;20048;-76
2023/09/17 02:02:46;;;;;;;21.92;19.63;;;16.50;99.90;;;;;;5067954;28;20568;-77
2023/09/17 02:05:21;;;;;;;24.02;20.50;;;16.60;99.90;;;;;;5022974;28;20542;-77
2023/09/17 02:07:48;;;;;;;21.33;18.77;;;16.60;99.90;;;;;;5036427;28;20047;-75
2023/09/17 02:10:14;;;;;;;25.67;21.92;;;16.60;99.90;;;;;;5025410;28;20040;-77
2023/09/17 02:12:39;;;;;;;22.00;19.20;;;16.60;99.90;;;;;;5051595;28;20102;-75
2023/09/17 02:15:11;;;;;;;21.92;19.60;;;16.70;99.90;;;;;;5055105;28;20048;-76
2023/09/17 02:17:36;;;;;;;23.33;19.77;;;16.70;99.90;;;;;;5048971;28;20213;-76
2023/09/17 02:20:04;;;;;;;26.55;20.90;;;16.70;99.90;;;;;;5064428;28;20051;-76
2023/09/17 02:22:30;;;;;;;31.55;20.85;;;16.70;99.90;;;;;;5046478;28;20053;-76
2023/09/17 02:24:56;;;;;;;20.83;18.63;;;16.80;99.90;;;;;;5047410;28;20678;-76
2023/09/17 02:27:22;;;;;;;22.52;18.55;;;16.80;99.90;;;;;;5045754;28;20487;-76
2023/09/17 02:29:47;;;;;;;22.42;17.00;;;16.80;99.90;;;;;;5063167;28;20395;-76
2023/09/17 02:32:13;;;;;;;21.00;18.30;;;16.80;99.90;;;;;;5013024;28;20068;-76
2023/09/17 02:34:39;;;;;;;20.42;18.27;;;16.80;99.90;;;;;;5020618;28;20745;-76
2023/09/17 02:37:05;;;;;;;20.83;18.63;;;16.80;99.90;;;;;;5037291;28;20045;-76
2023/09/17 02:39:31;;;;;;;22.17;19.20;;;16.80;99.90;;;;;;5047642;28;20044;-76
2023/09/17 02:41:58;;;;;;;24.98;22.10;;;16.80;99.90;;;;;;5064886;28;20137;-75
2023/09/17 02:44:25;;;;;;;22.65;19.92;;;16.90;99.90;;;;;;5049567;28;20090;-76
2023/09/17 02:46:51;;;;;;;23.95;20.25;;;16.90;99.90;;;;;;5023333;28;20052;-77
2023/09/17 02:49:21;;;;;;;24.95;22.27;;;16.90;99.90;;;;;;5010960;28;20051;-76
2023/09/17 02:51:48;;;;;;;24.23;20.58;;;16.80;99.90;;;;;;5046829;28;20376;-77
2023/09/17 02:54:14;;;;;;;26.88;20.95;;;16.90;99.90;;;;;;5015989;28;20089;-77
2023/09/17 02:56:40;;;;;;;22.88;20.48;;;16.90;99.90;;;;;;5028728;28;20060;-76
2023/09/17 02:59:06;;;;;;;25.60;21.88;;;16.90;99.90;;;;;;5050183;28;20049;-76
2023/09/17 03:01:35;;;;;;;25.42;22.40;;;16.90;99.90;;;;;;5067855;28;20387;-76
2023/09/17 03:04:02;;;;;;;24.88;21.05;;;16.90;99.90;;;;;;5051600;28;20468;-76
2023/09/17 03:06:29;;;;;;;24.75;20.27;;;16.90;99.90;;;;;;5051651;28;20051;-76
2023/09/17 03:08:55;;;;;;;23.75;20.80;;;16.90;99.90;;;;;;5068094;28;20040;-76
2023/09/17 03:11:23;;;;;;;27.08;23.17;;;17.00;99.90;;;;;;5046100;28;20045;-76
2023/09/17 03:13:51;;;;;;;26.58;23.10;;;17.00;99.90;;;;;;5035114;28;20046;-76
2023/09/17 03:16:18;;;;;;;27.20;23.15;;;17.00;99.90;;;;;;5048285;28;20167;-77
2023/09/17 03:18:45;;;;;;;25.77;22.98;;;17.00;99.90;;;;;;5040872;28;20053;-76
2023/09/17 03:21:11;;;;;;;25.38;21.92;;;17.00;99.90;;;;;;5042489;28;20083;-77
2023/09/17 03:23:38;;;;;;;24.98;22.30;;;17.00;99.90;;;;;;5021037;28;20052;-76
2023/09/17 03:26:04;;;;;;;24.58;21.92;;;17.00;99.90;;;;;;5045240;28;20048;-77
2023/09/17 03:28:31;;;;;;;23.95;21.45;;;17.00;99.90;;;;;;5045367;28;20300;-77
2023/09/17 03:30:57;;;;;;;24.17;21.50;;;17.00;99.90;;;;;;5067363;28;20472;-75
2023/09/17 03:33:23;;;;;;;23.23;20.70;;;17.00;99.90;;;;;;5044931;28;20057;-77
2023/09/17 03:35:49;;;;;;;23.08;20.58;;;17.10;99.90;;;;;;5033097;28;20066;-76
2023/09/17 03:38:15;;;;;;;22.63;20.00;;;17.00;99.90;;;;;;5056091;28;20509;-76
2023/09/17 03:40:41;;;;;;;22.52;20.13;;;17.00;99.90;;;;;;5031371;28;20060;-77
2023/09/17 03:43:08;;;;;;;21.90;18.70;;;17.10;99.90;;;;;;5047460;28;20044;-77
2023/09/17 03:45:34;;;;;;;26.75;20.85;;;17.00;99.90;;;;;;5051356;28;20509;-76
2023/09/17 03:48:00;;;;;;;22.58;20.17;;;17.00;99.90;;;;;;5045110;28;20096;-77
2023/09/17 03:50:28;;;;;;;24.65;20.17;;;17.10;99.90;;;;;;5043127;28;20044;-76
2023/09/17 03:52:57;;;;;;;25.92;21.05;;;17.10;99.90;;;;;;5020871;28;20059;-76
2023/09/17 03:55:23;;;;;;;23.58;19.67;;;17.00;99.90;;;;;;5008053;28;20517;-76
2023/09/17 03:57:50;;;;;;;22.65;18.67;;;17.00;99.90;;;;;;5025489;28;20124;-76
2023/09/17 04:00:17;;;;;;;21.52;19.00;;;17.10;99.90;;;;;;5030374;28;20040;-77
2023/09/17 04:02:43;;;;;;;22.75;20.23;;;17.10;99.90;;;;;;5048871;28;20087;-77
2023/09/17 04:05:12;;;;;;;22.23;19.80;;;17.10;99.90;;;;;;5031310;28;20051;-77
2023/09/17 04:07:40;;;;;;;21.65;17.33;;;17.10;99.90;;;;;;5032670;28;20133;-77
2023/09/17 04:10:07;;;;;;;21.15;18.85;;;17.10;99.90;;;;;;5051797;28;20123;-77
2023/09/17 04:12:37;;;;;;;23.77;19.23;;;17.10;99.90;;;;;;5037149;28;20053;-76
2023/09/17 04:15:08;;;;;;;21.95;18.88;;;17.10;99.90;;;;;;5049911;28;20051;-77
2023/09/17 04:17:34;;;;;;;20.75;18.23;;;17.10;99.90;;;;;;5050877;28;20621;-77
2023/09/17 04:20:00;;;;;;;23.08;19.33;;;17.10;99.90;;;;;;5018498;28;20071;-77
2023/09/17 04:22:27;;;;;;;20.77;18.58;;;17.10;99.90;;;;;;5046744;28;20480;-76
2023/09/17 04:24:53;;;;;;;22.02;18.90;;;17.10;99.90;;;;;;5048863;28;20102;-76
2023/09/17 04:27:19;;;;;;;23.52;19.88;;;17.10;99.90;;;;;;5022589;28;21871;-76
2023/09/17 04:29:44;;;;;;;22.02;17.80;;;17.10;99.90;;;;;;5046631;28;20480;-76
2023/09/17 04:32:12;;;;;;;19.80;17.35;;;17.10;99.90;;;;;;5048089;28;20386;-77
2023/09/17 04:34:38;;;;;;;21.25;18.85;;;17.20;99.90;;;;;;5025234;28;20758;-76
2023/09/17 04:37:04;;;;;;;20.90;18.00;;;17.20;99.90;;;;;;5035011;28;20043;-77
2023/09/17 04:39:30;;;;;;;21.42;18.08;;;17.20;99.90;;;;;;5009668;28;20074;-76
2023/09/17 04:41:55;;;;;;;20.92;18.25;;;17.20;99.90;;;;;;5035074;28;20093;-77
2023/09/17 04:44:21;;;;;;;24.65;19.20;;;17.20;99.90;;;;;;5018906;28;20097;-76
2023/09/17 04:46:47;;;;;;;20.33;18.00;;;17.20;99.90;;;;;;5029304;28;20534;-76
2023/09/17 04:49:14;;;;;;;20.58;18.13;;;17.20;99.90;;;;;;5046207;28;20127;-77
2023/09/17 04:51:40;;;;;;;21.50;19.23;;;17.20;99.90;;;;;;5027468;28;20041;-76
2023/09/17 04:54:06;;;;;;;21.85;19.08;;;17.20;99.90;;;;;;5030202;28;20048;-77
2023/09/17 04:56:32;;;;;;;20.85;18.65;;;17.20;99.90;;;;;;5045176;28;20090;-77
2023/09/17 04:59:01;;;;;;;22.55;19.38;;;17.20;99.90;;;;;;5065244;28;20040;-77
2023/09/17 05:01:27;;;;;;;25.13;20.25;;;17.20;99.90;;;;;;5030135;28;20052;-77
2023/09/17 05:03:53;;;;;;;22.75;18.58;;;17.20;99.90;;;;;;5025479;28;20060;-77
2023/09/17 05:06:19;;;;;;;22.10;19.27;;;17.20;99.90;;;;;;5066900;28;20108;-76
2023/09/17 05:08:45;;;;;;;24.40;21.55;;;17.20;99.90;;;;;;5051532;28;20538;-77
2023/09/17 05:11:11;;;;;;;22.80;20.20;;;17.20;99.90;;;;;;5032433;28;20525;-77
2023/09/17 05:13:37;;;;;;;22.35;19.98;;;17.20;99.90;;;;;;5065387;28;20127;-77
2023/09/17 05:16:03;;;;;;;23.02;20.58;;;17.20;99.90;;;;;;5064848;28;20052;-77
2023/09/17 05:18:29;;;;;;;24.55;21.27;;;17.20;99.90;;;;;;5022758;28;20053;-77
2023/09/17 05:20:55;;;;;;;22.27;19.88;;;17.30;99.90;;;;;;5047322;28;20562;-76
2023/09/17 05:23:22;;;;;;;21.75;19.42;;;17.20;99.90;;;;;;5030238;28;20139;-76
2023/09/17 05:25:48;;;;;;;23.55;21.02;;;17.20;99.90;;;;;;5046062;28;20077;-77
2023/09/17 05:28:14;;;;;;;23.63;20.20;;;17.30;99.90;;;;;;5025508;28;20471;-77
2023/09/17 05:30:40;;;;;;;25.88;21.70;;;17.30;99.90;;;;;;5046055;28;20111;-77
2023/09/17 05:33:05;;;;;;;23.13;19.13;;;17.30;99.90;;;;;;5050177;28;20040;-77
2023/09/17 05:35:32;;;;;;;24.88;22.13;;;17.30;99.90;;;;;;5017899;28;20139;-77
2023/09/17 05:37:58;;;;;;;26.02;21.48;;;17.30;99.90;;;;;;5051101;28;20118;-77
2023/09/17 05:40:24;;;;;;;26.23;22.50;;;17.30;99.90;;;;;;5052758;28;20049;-77
2023/09/17 05:42:51;;;;;;;25.20;22.50;;;17.30;99.90;;;;;;5022209;28;20142;-76
2023/09/17 05:45:17;;;;;;;24.83;21.50;;;17.30;99.90;;;;;;5048610;28;20048;-77
2023/09/17 05:47:45;;;;;;;23.88;21.27;;;17.30;99.90;;;;;;5033816;28;21010;-77
2023/09/17 05:50:11;;;;;;;25.10;22.40;;;17.30;99.90;;;;;;5048481;28;20076;-77
2023/09/17 05:52:37;;;;;;;25.10;22.48;;;17.30;99.90;;;;;;5022451;28;20048;-77
2023/09/17 05:55:04;;;;;;;27.80;23.10;;;17.30;99.90;;;;;;5048373;28;20051;-77
2023/09/17 05:57:30;;;;;;;26.25;23.40;;;17.40;99.90;;;;;;5036178;28;20044;-77
2023/09/17 05:59:57;;;;;;;25.85;23.02;;;17.40;99.90;;;;;;5046846;28;20056;-77
2023/09/17 06:02:22;;;;;;;25.38;22.83;;;17.40;99.90;;;;;;5067757;28;20040;-77
2023/09/17 06:04:52;;;;;;;23.38;20.88;;;17.40;99.90;;;;;;5046979;28;20063;-77
2023/09/17 06:07:19;;;;;;;25.15;22.20;;;17.40;99.90;;;;;;5033728;28;20047;-77
2023/09/17 06:09:45;;;;;;;24.92;22.33;;;17.40;99.90;;;;;;5039890;28;20044;-76
2023/09/17 06:12:12;;;;;;;25.85;23.08;;;17.40;99.90;;;;;;5049749;28;20529;-77
2023/09/17 06:14:38;;;;;;;26.92;22.58;;;17.40;99.90;;;;;;5044813;28;20056;-77
2023/09/17 06:17:05;;;;;;;26.20;23.40;;;17.50;99.90;;;;;;5047566;28;20052;-77
2023/09/17 06:19:33;;;;;;;25.67;22.50;;;17.50;99.90;;;;;;5046161;28;20074;-77
2023/09/17 06:21:59;;;;;;;27.77;22.98;;;17.50;99.90;;;;;;5039457;28;20055;-76
2023/09/17 06:24:25;;;;;;;25.67;22.90;;;17.50;99.90;;;;;;5049256;28;20468;-77
2023/09/17 06:26:51;;;;;;;24.52;21.20;;;17.50;99.90;;;;;;5033174;28;20075;-76
2023/09/17 06:29:16;;;;;;;25.73;22.98;;;17.50;99.90;;;;;;5002933;28;20558;-77
2023/09/17 06:31:42;;;;;;;24.45;21.85;;;17.60;99.90;;;;;;5049357;28;20139;-77
2023/09/17 06:34:09;;;;;;;26.77;22.77;;;17.60;99.90;;;;;;5031915;28;20697;-76
2023/09/17 06:36:36;;;;;;;24.33;21.25;;;17.60;99.90;;;;;;5022845;28;20044;-77
2023/09/17 06:39:03;;;;;;;23.45;20.77;;;17.60;99.90;;;;;;5046131;28;20533;-76
2023/09/17 06:41:28;;;;;;;23.77;21.27;;;17.60;99.90;;;;;;5047787;28;20451;-76
2023/09/17 06:43:55;;;;;;;25.45;21.15;;;17.70;99.90;;;;;;5028647;28;20109;-77
2023/09/17 06:46:23;;;;;;;23.05;19.63;;;17.80;99.90;;;;;;5038311;28;20048;-77
2023/09/17 06:48:50;;;;;;;23.10;20.65;;;17.80;99.90;;;;;;5046798;28;20048;-77
2023/09/17 06:51:16;;;;;;;23.20;20.67;;;17.80;99.90;;;;;;5045159;28;20049;-76
2023/09/17 06:53:42;;;;;;;21.90;19.60;;;17.90;99.90;;;;;;5044443;28;20099;-77
2023/09/17 06:56:09;;;;;;;21.80;19.48;;;17.90;99.90;;;;;;5046268;28;20053;-76
2023/09/17 06:58:35;;;;;;;25.10;20.35;;;17.90;99.90;;;;;;5062279;28;20403;-77
2023/09/17 07:01:01;;;;;;;21.58;19.27;;;17.90;99.90;;;;;;5030498;28;20051;-77
2023/09/17 07:03:26;;;;;;;21.67;19.38;;;17.90;99.90;;;;;;5001836;28;20053;-77
2023/09/17 07:05:52;;;;;;;19.90;17.35;;;18.00;99.90;;;;;;5047366;28;20394;-76
2023/09/17 07:08:19;;;;;;;22.63;20.25;;;18.00;99.90;;;;;;5037786;28;20036;-77
2023/09/17 07:10:45;;;;;;;20.42;18.33;;;18.00;99.90;;;;;;5028839;28;20164;-77
2023/09/17 07:13:11;;;;;;;23.17;19.70;;;18.00;99.90;;;;;;5047383;28;20598;-77
2023/09/17 07:15:37;;;;;;;22.15;18.70;;;18.00;99.90;;;;;;5054122;28;20266;-76
2023/09/17 07:18:03;;;;;;;22.30;17.77;;;18.10;99.90;;;;;;5035878;28;20076;-76
2023/09/17 07:20:29;;;;;;;20.92;17.73;;;18.10;99.90;;;;;;5043448;28;20050;-77
2023/09/17 07:22:55;;;;;;;20.85;18.10;;;18.10;99.90;;;;;;5048662;28;20036;-77
2023/09/17 07:25:21;;;;;;;20.98;17.83;;;18.20;99.90;;;;;;5044777;28;20097;-77
2023/09/17 07:27:46;;;;;;;18.17;16.27;;;18.20;99.90;;;;;;5064818;28;20061;-77
2023/09/17 07:30:12;;;;;;;21.77;18.27;;;18.20;99.90;;;;;;5043552;28;20407;-77
2023/09/17 07:32:38;;;;;;;21.13;18.75;;;18.20;99.90;;;;;;5063509;28;20060;-76
2023/09/17 07:35:05;;;;;;;21.75;18.20;;;18.20;99.80;;;;;;5065951;28;20048;-77
2023/09/17 07:37:30;;;;;;;20.35;18.20;;;18.30;99.80;;;;;;5047786;28;20056;-77
2023/09/17 07:39:59;;;;;;;21.20;18.95;;;18.30;99.80;;;;;;5027391;28;20566;-77
2023/09/17 07:42:25;;;;;;;20.73;18.35;;;18.20;99.80;;;;;;5030279;28;20055;-77
2023/09/17 07:44:51;;;;;;;20.40;17.88;;;18.20;99.80;;;;;;5015405;28;20040;-76
2023/09/17 07:47:17;;;;;;;19.90;17.90;;;18.30;99.80;;;;;;5023693;28;20053;-77
2023/09/17 07:49:43;;;;;;;20.15;18.05;;;18.30;99.70;;;;;;5063138;28;20060;-76
2023/09/17 07:52:09;;;;;;;19.00;17.00;;;18.30;99.70;;;;;;5027551;28;20106;-76
2023/09/17 07:54:41;;;;;;;20.50;18.27;;;18.30;99.70;;;;;;5069847;28;20044;-77
2023/09/17 07:57:12;;;;;;;19.38;17.42;;;18.30;99.60;;;;;;5039583;28;20048;-77
2023/09/17 07:59:38;;;;;;;19.52;17.55;;;18.30;99.60;;;;;;5025755;28;20098;-77
2023/09/17 08:02:07;;;;;;;20.45;18.00;;;18.30;99.60;;;;;;5051469;28;20056;-76
2023/09/17 08:04:33;;;;;;;19.55;17.55;;;18.30;99.50;;;;;;5065670;28;20045;-76
2023/09/17 08:06:59;;;;;;;19.33;17.33;;;18.40;99.50;;;;;;5025194;28;20040;-76
2023/09/17 08:09:27;;;;;;;20.25;17.65;;;18.40;99.50;;;;;;5050738;28;20847;-77
2023/09/17 08:11:53;;;;;;;20.08;17.90;;;18.40;99.50;;;;;;5033036;28;20249;-76
2023/09/17 08:14:22;;;;;;;22.20;16.55;;;18.40;99.50;;;;;;5066176;28;20084;-76
2023/09/17 08:16:49;;;;;;;18.75;16.88;;;18.40;99.50;;;;;;5066431;28;20521;-76
2023/09/17 08:19:17;;;;;;;20.15;18.02;;;18.40;99.50;;;;;;5034017;28;20044;-76
2023/09/17 08:22:01;;;;;;;20.50;18.35;;;18.50;99.50;;;;;;5045472;28;20164;-76
2023/09/17 08:24:33;;;;;;;22.05;19.85;;;18.50;99.40;;;;;;5014033;28;20044;-76
2023/09/17 08:26:59;;;;;;;21.98;19.67;;;18.50;99.40;;;;;;5051332;28;20047;-76
2023/09/17 08:29:24;;;;;;;20.75;18.42;;;18.50;99.50;;;;;;5048714;28;20047;-76
2023/09/17 08:31:51;;;;;;;19.92;16.05;;;18.50;99.50;;;;;;5067717;28;20041;-76
2023/09/17 08:34:16;;;;;;;18.70;16.67;;;18.50;99.50;;;;;;5033099;28;20079;-76
2023/09/17 08:36:44;;;;;;;20.70;17.75;;;18.50;99.60;;;;;;5009880;28;20095;-77
2023/09/17 08:39:11;;;;;;;20.58;18.40;;;18.50;99.50;;;;;;5031219;28;20079;-76
2023/09/17 08:41:40;;;;;;;20.80;18.35;;;18.50;99.50;;;;;;5027483;28;20100;-76
2023/09/17 08:44:07;;;;;;;21.20;16.67;;;18.50;99.60;;;;;;5045580;28;20380;-77
2023/09/17 08:46:35;;;;;;;23.80;19.73;;;18.50;99.60;;;;;;5014541;28;20040;-75
2023/09/17 08:49:01;;;;;;;20.85;18.65;;;18.40;99.70;;;;;;5049230;28;20041;-75
2023/09/17 08:51:32;;;;;;;21.15;17.80;;;18.40;99.80;;;;;;5046885;28;20051;-76
2023/09/17 08:54:02;;;;;;;22.30;19.42;;;18.40;99.90;;;;;;5051433;28;20040;-76
2023/09/17 08:56:31;;;;;;;20.25;18.05;;;18.40;99.90;;;;;;5056971;28;20142;-76
2023/09/17 08:59:04;;;;;;;21.13;18.90;;;18.40;99.90;;;;;;5047156;28;20044;-76
2023/09/17 09:01:31;;;;;;;19.55;17.45;;;18.40;99.90;;;;;;5044533;28;20793;-76
2023/09/17 09:03:58;;;;;;;19.80;17.70;;;18.40;99.90;;;;;;5031979;28;20130;-76
2023/09/17 09:06:27;;;;;;;23.75;19.90;;;18.40;99.90;;;;;;5000479;28;20114;-75
2023/09/17 09:08:54;;;;;;;23.95;20.38;;;18.40;99.90;;;;;;5049779;28;20067;-76
2023/09/17 09:11:20;;;;;;;23.55;19.67;;;18.40;99.90;;;;;;5050586;28;20048;-74
2023/09/17 09:13:50;;;;;;;25.38;20.25;;;18.40;99.90;;;;;;5026975;28;20085;-76
2023/09/17 09:16:17;;;;;;;20.48;18.38;;;18.40;99.90;;;;;;5050208;28;20055;-76
2023/09/17 09:18:43;;;;;;;22.80;20.08;;;18.40;99.90;;;;;;5053436;28;20053;-76
2023/09/17 09:21:13;;;;;;;21.80;19.50;;;18.40;99.90;;;;;;5050606;28;20536;-76
2023/09/17 09:23:39;;;;;;;26.45;21.17;;;18.40;99.90;;;;;;5049379;28;20048;-77
2023/09/17 09:26:06;;;;;;;21.50;18.70;;;18.50;99.90;;;;;;5046204;28;20041;-77
2023/09/17 09:28:32;;;;;;;25.80;20.42;;;18.50;99.90;;;;;;5046625;28;20080;-76
2023/09/17 09:30:58;;;;;;;21.08;18.95;;;18.50;99.90;;;;;;5051718;28;20059;-76
2023/09/17 09:33:26;;;;;;;20.17;17.40;;;18.50;99.90;;;;;;5057177;28;20048;-77
2023/09/17 09:35:53;;;;;;;22.42;18.20;;;18.40;99.90;;;;;;5052876;28;20059;-77
2023/09/17 09:38:19;;;;;;;22.75;20.02;;;18.50;99.90;;;;;;5046265;28;20052;-76
2023/09/17 09:40:45;;;;;;;21.48;19.08;;;18.50;99.90;;;;;;5024779;28;20296;-75
2023/09/17 09:43:30;;;;;;;22.60;19.02;;;18.40;99.90;;;;;;5024533;28;20079;-75
2023/09/17 09:46:02;;;;;;;22.30;19.48;;;18.40;99.90;;;;;;5049956;28;20056;-76
2023/09/17 09:48:28;;;;;;;21.27;17.92;;;18.40;99.90;;;;;;5045477;28;20410;-76
2023/09/17 09:50:55;;;;;;;22.52;20.13;;;18.40;99.90;;;;;;5050869;28;20043;-76
2023/09/17 09:53:21;;;;;;;24.05;21.45;;;18.40;99.90;;;;;;5052885;28;20048;-76
2023/09/17 09:55:47;;;;;;;21.92;19.58;;;18.40;99.90;;;;;;5032302;28;20710;-77
2023/09/17 09:58:14;;;;;;;24.83;21.38;;;18.40;99.90;;;;;;5024005;28;20052;-77
2023/09/17 10:00:44;;;;;;;25.55;21.42;;;18.40;99.90;;;;;;5046094;28;20284;-76
2023/09/17 10:03:17;;;;;;;23.73;20.48;;;18.40;99.90;;;;;;5063432;28;20688;-77
2023/09/17 10:05:44;;;;;;;23.08;17.73;;;18.40;99.90;;;;;;5050234;28;20048;-77
2023/09/17 10:08:12;;;;;;;20.08;17.67;;;18.40;99.90;;;;;;5051015;28;20048;-77
2023/09/17 10:10:39;;;;;;;21.58;18.35;;;18.40;99.90;;;;;;5033276;28;20032;-77
2023/09/17 10:13:11;;;;;;;22.48;19.63;;;18.40;99.90;;;;;;5047624;28;20048;-77
2023/09/17 10:15:41;;;;;;;20.45;18.40;;;18.40;99.90;;;;;;5052272;28;20452;-76
2023/09/17 10:18:10;;;;;;;21.83;16.83;;;18.40;99.90;;;;;;5043167;28;20828;-76
2023/09/17 10:20:37;;;;;;;20.90;17.95;;;18.30;99.90;;;;;;5022214;28;20040;-75
2023/09/17 10:23:05;;;;;;;19.42;16.25;;;18.30;99.90;;;;;;5044647;28;20062;-76
2023/09/17 10:25:33;;;;;;;20.88;18.48;;;18.30;99.90;;;;;;5004340;28;20068;-76
2023/09/17 10:28:01;;;;;;;20.95;17.90;;;18.30;99.90;;;;;;5044875;28;20098;-76
2023/09/17 10:30:28;;;;;;;18.55;16.08;;;18.30;99.90;;;;;;5030700;28;20036;-76
2023/09/17 10:32:55;;;;;;;20.92;16.75;;;18.20;99.90;;;;;;5030111;28;20501;-76
2023/09/17 10:35:22;;;;;;;21.25;18.00;;;18.20;99.90;;;;;;5022757;28;20052;-76
2023/09/17 10:37:49;;;;;;;18.42;15.02;;;18.20;99.90;;;;;;5052299;28;20604;-76
2023/09/17 10:40:15;;;;;;;18.05;15.48;;;18.10;99.90;;;;;;5028852;28;20505;-76
2023/09/17 10:42:43;;;;;;;15.15;13.52;;;18.10;99.90;;;;;;5066212;28;20742;-76
2023/09/17 10:45:12;;;;;;;17.63;14.00;;;18.00;99.90;;;;;;5022781;28;20258;-76
2023/09/17 10:47:44;;;;;;;16.33;14.27;;;18.00;99.90;;;;;;5043416;28;20471;-76
2023/09/17 10:50:13;;;;;;;15.95;14.07;;;18.00;99.90;;;;;;5019612;28;20036;-76
2023/09/17 10:52:39;;;;;;;17.88;15.02;;;18.00;99.90;;;;;;5040604;28;20568;-76
2023/09/17 10:55:07;;;;;;;16.63;15.02;;;17.90;99.90;;;;;;5062725;28;20134;-76
2023/09/17 10:57:44;;;;;;;17.15;15.35;;;17.90;99.90;;;;;;5040389;28;20052;-76
2023/09/17 11:00:17;;;;;;;17.15;15.35;;;18.00;99.90;;;;;;5049382;28;20391;-76
2023/09/17 11:02:50;;;;;;;16.00;14.25;;;18.00;99.90;;;;;;5046008;28;20060;-77
2023/09/17 11:05:20;;;;;;;16.92;15.13;;;18.00;99.90;;;;;;5051225;28;20403;-76
2023/09/17 11:07:47;;;;;;;17.13;15.32;;;18.10;99.90;;;;;;5048526;28;20048;-76
2023/09/17 11:10:15;;;;;;;15.95;14.30;;;18.10;99.90;;;;;;5045979;28;20054;-77
2023/09/17 11:12:42;;;;;;;14.38;12.65;;;18.10;99.90;;;;;;5024104;28;20063;-77
2023/09/17 11:15:09;;;;;;;13.85;12.35;;;18.10;99.90;;;;;;5036878;28;20101;-76
2023/09/17 11:17:35;;;;;;;14.63;12.43;;;18.10;99.90;;;;;;5024668;28;20071;-75
2023/09/17 11:20:07;;;;;;;14.10;12.50;;;18.10;99.90;;;;;;5006146;28;20487;-76
2023/09/17 11:22:39;;;;;;;14.10;12.57;;;18.10;99.90;;;;;;5034831;28;20055;-76
2023/09/17 11:25:07;;;;;;;13.77;12.40;;;18.10;99.90;;;;;;5040758;28;20469;-77
2023/09/17 11:27:52;;;;;;;14.45;13.05;;;18.10;99.90;;;;;;5026979;28;20072;-76
2023/09/17 11:30:24;;;;;;;14.13;12.63;;;18.10;99.90;;;;;;5023143;28;20040;-77
2023/09/17 11:32:55;;;;;;;15.40;13.80;;;18.10;99.90;;;;;;5065096;28;20380;-77
2023/09/17 11:35:22;;;;;;;16.42;14.77;;;18.20;99.90;;;;;;5042183;28;20049;-77
2023/09/17 11:37:49;;;;;;;14.70;13.20;;;18.30;99.90;;;;;;5044888;28;20084;-77
2023/09/17 11:40:16;;;;;;;16.27;14.57;;;18.30;99.90;;;;;;5008208;28;20052;-77
2023/09/17 11:42:44;;;;;;;14.55;13.05;;;18.30;99.90;;;;;;5032502;28;20048;-77
2023/09/17 11:45:14;;;;;;;16.13;14.43;;;18.40;99.90;;;;;;5035314;28;20107;-76
2023/09/17 11:47:45;;;;;;;15.18;13.60;;;18.50;99.90;;;;;;5027309;28;20091;-77
2023/09/17 11:50:13;;;;;;;15.52;13.93;;;18.60;99.90;;;;;;5047003;28;20075;-76
2023/09/17 11:52:41;;;;;;;14.13;12.57;;;18.80;99.90;;;;;;5024225;28;20057;-77
2023/09/17 11:55:11;;;;;;;12.60;11.40;;;18.90;99.90;;;;;;5020170;28;20424;-77
2023/09/17 11:57:38;;;;;;;13.75;12.30;;;19.10;99.90;;;;;;5040201;28;20053;-77
2023/09/17 12:00:11;;;;;;;12.98;11.10;;;19.30;99.90;;;;;;5030719;28;20122;-76
2023/09/17 12:02:37;;;;;;;11.55;10.13;;;19.50;99.90;;;;;;5045591;28;20102;-77
2023/09/17 12:05:07;;;;;;;11.20;10.00;;;19.60;99.90;;;;;;5046537;28;20056;-77
2023/09/17 12:07:34;;;;;;;9.82;8.82;;;19.80;99.70;;;;;;5061095;28;20138;-77
2023/09/17 12:10:07;;;;;;;10.25;8.95;;;19.90;99.40;;;;;;5035235;28;20045;-77
2023/09/17 12:12:35;;;;;;;9.63;8.63;;;20.00;99.30;;;;;;5049017;28;20136;-77
2023/09/17 12:15:05;;;;;;;9.32;8.38;;;20.10;99.10;;;;;;5042914;28;20044;-77
2023/09/17 12:17:33;;;;;;;9.43;8.52;;;20.40;98.60;;;;;;5033360;28;20119;-77
2023/09/17 12:20:12;;;;;;;9.25;7.70;;;20.90;98.10;;;;;;5026399;28;20355;-78
2023/09/17 12:22:39;;;;;;;10.27;8.50;;;21.50;97.00;;;;;;5029715;28;20177;-78
2023/09/17 12:25:14;;;;;;;10.10;7.40;;;22.00;95.60;;;;;;5048813;28;20056;-78
2023/09/17 12:27:47;;;;;;;8.38;7.57;;;22.20;94.10;;;;;;5047802;28;20534;-77
2023/09/17 12:30:15;;;;;;;9.20;7.28;;;22.40;93.30;;;;;;5026736;28;20073;-77